Time;durP1;ratioP1;P1;durP2;ratioP2;P2;SDS_P1;SDS_P2;PMS_P1;PMS_P2;Temp;Humidity;BMP_temperature;BMP_pressure;BME280_temperature;BME280_humidity;BME280_pressure;Samples;Min_cycle;Max_cycle;Signal;HPM_P1;HPM_P2
2022/08/25 00:01:36;;;;;;;;;;;;;;;-142.75;100.00;76076.22;5052878;28;19913;-68
2022/08/25 00:04:02;;;;;;;;;;;;;;;-142.75;100.00;76074.25;5053837;28;19921;-68
2022/08/25 00:06:27;;;;;;;;;;;;;;;-142.75;100.00;76076.22;5054000;28;20390;-68
2022/08/25 00:08:53;;;;;;;;;;;;;;;-142.75;100.00;76076.22;5053824;28;19974;-68
2022/08/25 00:11:20;;;;;;;;;;;;;;;-142.75;100.00;76070.34;5054065;28;19912;-68
2022/08/25 00:13:49;;;;;;;;;;;;;;;-142.75;100.00;76078.19;5053892;28;20283;-68
2022/08/25 00:16:15;;;;;;;;;;;;;;;-142.75;100.00;76078.19;5053918;28;19913;-68
2022/08/25 00:18:43;;;;;;;;;;;;;;;-142.75;100.00;76082.13;5053558;28;19979;-68
2022/08/25 00:21:09;;;;;;;;;;;;;;;-142.75;100.00;76095.91;5053850;28;19924;-68
2022/08/25 00:23:34;;;;;;;;;;;;;;;-142.75;100.00;76097.88;5052803;28;19913;-68
2022/08/25 00:26:00;;;;;;;;;;;;;;;-142.75;100.00;76109.69;5053699;28;19912;-68
2022/08/25 00:28:26;;;;;;;;;;;;;;;-142.75;100.00;76131.34;5053316;28;19940;-68
2022/08/25 00:30:51;;;;;;;;;;;;;;;-142.75;100.00;76137.25;5053657;28;19913;-68
2022/08/25 00:33:17;;;;;;;;;;;;;;;-142.75;100.00;76139.22;5053540;28;20281;-68
2022/08/25 00:35:42;;;;;;;;;;;;;;;-142.75;100.00;76147.09;5053469;28;19924;-68
2022/08/25 00:38:08;;;;;;;;;;;;;;;-142.75;100.00;76160.88;5053273;28;20390;-68
2022/08/25 00:40:34;;;;;;;;;;;;;;;-142.75;100.00;76154.97;5053519;28;19913;-68
2022/08/25 00:42:59;;;;;;;;;;;;;;;-142.75;100.00;76156.94;5053384;28;19912;-68
2022/08/25 00:45:25;;;;;;;;;;;;;;;-142.75;100.00;76156.94;5053288;28;19939;-68
2022/08/25 00:47:50;;;;;;;;;;;;;;;-142.75;100.00;76156.94;5053154;28;20380;-68
2022/08/25 00:50:16;;;;;;;;;;;;;;;-142.75;100.00;76156.94;5053332;28;19913;-68
2022/08/25 00:52:44;;;;;;;;;;;;;;;-142.75;100.00;76164.81;5053270;28;19920;-68
2022/08/25 00:55:27;;;;;;;;;;;;;;;-142.75;100.00;76160.88;5053226;28;20478;-68
2022/08/25 00:57:57;;;;;;;;;;;;;;;-142.75;100.00;76168.75;5052810;28;19970;-68
2022/08/25 01:00:26;;;;;;;;;;;;;;;-142.75;100.00;76172.69;5053068;28;20313;-68
2022/08/25 01:02:51;;;;;;;;;;;;;;;-142.75;100.00;76160.88;5076577;22;20955;-68
2022/08/25 01:05:18;;;;;;;;;;;;;;;-142.75;100.00;76170.72;5053239;28;19925;-71
2022/08/25 01:07:43;;;;;;;;;;;;;;;-142.75;100.00;76172.69;5070937;28;19913;-70
2022/08/25 01:10:09;;;;;;;;;;;;;;;-142.75;100.00;76180.56;5072842;28;19919;-70
2022/08/25 01:12:36;;;;;;;;;;;;;;;-142.75;100.00;76174.66;5072427;28;19912;-69
2022/08/25 01:15:02;;;;;;;;;;;;;;;-142.75;100.00;76174.66;5072688;28;19912;-70
2022/08/25 01:17:54;;;;;;;;;;;;;;;-142.75;100.00;76170.72;5072142;28;20057;-70
2022/08/25 01:20:21;;;;;;;;;;;;;;;-142.75;100.00;76172.69;5068665;28;19959;-70
2022/08/25 01:22:47;;;;;;;;;;;;;;;-142.75;100.00;76168.75;5072606;28;19920;-69
2022/08/25 01:25:28;;;;;;;;;;;;;;;-142.75;100.00;76168.75;5054564;28;19921;-71
2022/08/25 01:27:53;;;;;;;;;;;;;;;-142.75;100.00;76164.81;5072275;28;19918;-69
2022/08/25 01:30:18;;;;;;;;;;;;;;;-142.75;100.00;76156.94;5054628;28;19913;-70
2022/08/25 01:32:44;;;;;;;;;;;;;;;-142.75;100.00;76156.94;5072425;28;19912;-69
2022/08/25 01:35:09;;;;;;;;;;;;;;;-142.75;100.00;76160.88;5072296;28;20393;-69
2022/08/25 01:37:35;;;;;;;;;;;;;;;-142.75;100.00;76164.81;5072139;28;19912;-71
2022/08/25 01:40:00;;;;;;;;;;;;;;;-142.75;100.00;76158.91;5072400;28;19966;-69
2022/08/25 01:42:40;;;;;;;;;;;;;;;-142.75;100.00;76158.91;5054742;28;19916;-69
2022/08/25 01:45:06;;;;;;;;;;;;;;;-142.75;100.00;76149.06;5072817;28;19916;-69
2022/08/25 01:47:31;;;;;;;;;;;;;;;-142.75;100.00;76156.94;5072438;28;20305;-69
2022/08/25 01:49:56;;;;;;;;;;;;;;;-142.75;100.00;76158.91;5072566;28;19956;-69
2022/08/25 01:52:48;;;;;;;;;;;;;;;-142.75;100.00;76166.78;5072323;28;19916;-70
2022/08/25 01:55:13;;;;;;;;;;;;;;;-142.75;100.00;76160.88;5069057;28;20462;-70
2022/08/25 01:57:38;;;;;;;;;;;;;;;-142.75;100.00;76154.97;5071902;28;19955;-70
2022/08/25 02:00:05;;;;;;;;;;;;;;;-142.75;100.00;76145.13;5072201;28;19916;-69
2022/08/25 02:02:31;;;;;;;;;;;;;;;-142.75;100.00;76145.13;5072077;28;19966;-69
2022/08/25 02:04:56;;;;;;;;;;;;;;;-142.75;100.00;76153.00;5071956;28;19920;-70
2022/08/25 02:07:21;;;;;;;;;;;;;;;-142.75;100.00;76156.94;5053739;28;19917;-69
2022/08/25 02:09:46;;;;;;;;;;;;;;;-142.75;100.00;76160.88;5072106;28;20385;-69
2022/08/25 02:12:11;;;;;;;;;;;;;;;-142.75;100.00;76170.72;5071982;28;19916;-69
2022/08/25 02:14:37;;;;;;;;;;;;;;;-142.75;100.00;76160.88;5071986;28;20018;-70
2022/08/25 02:17:02;;;;;;;;;;;;;;;-142.75;100.00;76168.75;5071687;28;19966;-69
2022/08/25 02:19:29;;;;;;;;;;;;;;;-142.75;100.00;76176.63;5071951;28;19912;-69
2022/08/25 02:21:55;;;;;;;;;;;;;;;-142.75;100.00;76172.69;5053902;28;19999;-70
2022/08/25 02:24:20;;;;;;;;;;;;;;;-142.75;100.00;76182.53;5071768;28;20011;-70
2022/08/25 02:26:45;;;;;;;;;;;;;;;-142.75;100.00;76180.56;5071594;28;20007;-70
2022/08/25 02:29:10;;;;;;;;;;;;;;;-142.75;100.00;76186.47;5071934;28;19919;-70
2022/08/25 02:31:36;;;;;;;;;;;;;;;-142.75;100.00;76190.41;5071939;28;20404;-69
2022/08/25 02:34:01;;;;;;;;;;;;;;;-142.75;100.00;76184.50;5071836;28;20342;-69
2022/08/25 02:36:27;;;;;;;;;;;;;;;-142.75;100.00;76178.59;5071705;28;19966;-70
2022/08/25 02:38:52;;;;;;;;;;;;;;;-142.75;100.00;76176.63;5053713;28;20019;-69
2022/08/25 02:41:19;;;;;;;;;;;;;;;-142.75;100.00;76182.53;5071787;28;19912;-69
2022/08/25 02:43:45;;;;;;;;;;;;;;;-142.75;100.00;76176.63;5071638;28;19913;-70
2022/08/25 02:46:11;;;;;;;;;;;;;;;-142.75;100.00;76180.56;5071804;28;20408;-70
2022/08/25 02:48:36;;;;;;;;;;;;;;;-142.75;100.00;76186.47;5074578;28;19913;-69
2022/08/25 02:51:02;;;;;;;;;;;;;;;-142.75;100.00;76184.50;5075471;28;19977;-69
2022/08/25 02:53:28;;;;;;;;;;;;;;;-142.75;100.00;76190.41;5057444;28;19953;-70
2022/08/25 02:55:53;;;;;;;;;;;;;;;-142.75;100.00;76184.50;5075425;28;19912;-69
2022/08/25 02:58:19;;;;;;;;;;;;;;;-142.75;100.00;76184.50;5075098;28;20293;-70
2022/08/25 03:00:44;;;;;;;;;;;;;;;-142.75;100.00;76192.38;5075406;28;20062;-69
2022/08/25 03:03:10;;;;;;;;;;;;;;;-142.75;100.00;76188.44;5075143;28;19921;-70
2022/08/25 03:05:35;;;;;;;;;;;;;;;-142.75;100.00;76188.44;5075093;28;19916;-69
2022/08/25 03:08:00;;;;;;;;;;;;;;;-142.75;100.00;76184.50;5074935;28;19920;-69
2022/08/25 03:10:25;;;;;;;;;;;;;;;-142.75;100.00;76188.44;5075135;28;19912;-69
2022/08/25 03:12:51;;;;;;;;;;;;;;;-142.75;100.00;76188.44;5075067;28;19913;-69
2022/08/25 03:15:16;;;;;;;;;;;;;;;-142.75;100.00;76198.28;5075074;28;19918;-69
2022/08/25 03:17:45;;;;;;;;;;;;;;;-142.75;100.00;76206.13;5074759;28;20378;-70
2022/08/25 03:20:10;;;;;;;;;;;;;;;-142.75;100.00;76196.31;5074891;28;19912;-70
2022/08/25 03:22:36;;;;;;;;;;;;;;;-142.75;100.00;76212.03;5074975;28;20440;-69
2022/08/25 03:27:45;;;;;;;;;;;;;;;-142.75;100.00;76208.09;5074630;28;19919;-69
2022/08/25 03:30:12;;;;;;;;;;;;;;;-142.75;100.00;76204.16;5074807;28;19991;-69
2022/08/25 03:32:37;;;;;;;;;;;;;;;-142.75;100.00;76200.25;5074649;28;19920;-69
2022/08/25 03:35:03;;;;;;;;;;;;;;;-142.75;100.00;76225.81;5074724;28;19912;-69
2022/08/25 03:37:28;;;;;;;;;;;;;;;-142.75;100.00;76214.00;5074366;28;19912;-69
2022/08/25 03:39:53;;;;;;;;;;;;;;;-142.75;100.00;76215.97;5074615;28;19936;-70
2022/08/25 03:42:18;;;;;;;;;;;;;;;-142.75;100.00;76214.00;5074698;28;19934;-69
2022/08/25 03:44:44;;;;;;;;;;;;;;;-142.75;100.00;76215.97;5056471;28;20374;-70
2022/08/25 03:47:09;;;;;;;;;;;;;;;-142.75;100.00;76217.94;5074202;28;20456;-69
2022/08/25 03:49:34;;;;;;;;;;;;;;;-142.75;100.00;76219.91;5074463;28;19917;-70
2022/08/25 03:52:00;;;;;;;;;;;;;;;-142.75;100.00;76221.88;5074412;28;19920;-69
2022/08/25 03:54:25;;;;;;;;;;;;;;;-142.75;100.00;76227.78;5074240;28;19916;-69
2022/08/25 03:56:51;;;;;;;;;;;;;;;-142.75;100.00;76217.94;5073993;28;20275;-69
2022/08/25 03:59:16;;;;;;;;;;;;;;;-142.75;100.00;76215.97;5074235;28;19912;-69
2022/08/25 04:01:43;;;;;;;;;;;;;;;-142.75;100.00;76214.00;5074197;28;20393;-70
2022/08/25 04:04:10;;;;;;;;;;;;;;;-142.75;100.00;76206.13;5067239;28;19931;-69
2022/08/25 04:06:35;;;;;;;;;;;;;;;-142.75;100.00;76196.31;5073673;28;19999;-70
2022/08/25 04:09:00;;;;;;;;;;;;;;;-142.75;100.00;76194.34;5073951;28;19912;-69
2022/08/25 04:11:26;;;;;;;;;;;;;;;-142.75;100.00;76184.50;5074018;28;19920;-70
2022/08/25 04:13:52;;;;;;;;;;;;;;;-142.75;100.00;76188.44;5073951;28;20309;-69
2022/08/25 04:16:19;;;;;;;;;;;;;;;-142.75;100.00;76184.50;5073837;28;19935;-68
2022/08/25 04:18:45;;;;;;;;;;;;;;;-142.75;100.00;76180.56;5072899;28;19919;-70
2022/08/25 04:21:10;;;;;;;;;;;;;;;-142.75;100.00;76180.56;5073975;28;19912;-69
2022/08/25 04:23:37;;;;;;;;;;;;;;;-142.75;100.00;76180.56;5073520;28;20380;-69
2022/08/25 04:26:07;;;;;;;;;;;;;;;-142.75;100.00;76172.69;5073864;28;20720;-70
2022/08/25 04:28:32;;;;;;;;;;;;;;;-142.75;100.00;76174.66;5073551;28;19960;-69
2022/08/25 04:30:57;;;;;;;;;;;;;;;-142.75;100.00;76178.59;5073570;28;19963;-69
2022/08/25 04:33:22;;;;;;;;;;;;;;;-142.75;100.00;76178.59;5073600;28;19913;-69
2022/08/25 04:35:48;;;;;;;;;;;;;;;-142.75;100.00;76178.59;5073572;28;19951;-69
2022/08/25 04:38:13;;;;;;;;;;;;;;;-142.75;100.00;76174.66;5073215;28;19912;-70
2022/08/25 04:40:38;;;;;;;;;;;;;;;-142.75;100.00;76170.72;5073472;28;20290;-69
2022/08/25 04:43:03;;;;;;;;;;;;;;;-142.75;100.00;76176.63;5073315;28;19919;-70
2022/08/25 04:45:29;;;;;;;;;;;;;;;-142.75;100.00;76182.53;5073265;28;19916;-69
2022/08/25 04:47:56;;;;;;;;;;;;;;;-142.75;100.00;76174.66;5072926;28;19974;-69
2022/08/25 04:50:22;;;;;;;;;;;;;;;-142.75;100.00;76186.47;5073226;28;20432;-68
2022/08/25 04:52:48;;;;;;;;;;;;;;;-142.75;100.00;76180.56;5073010;28;19916;-69
2022/08/25 04:55:13;;;;;;;;;;;;;;;-142.75;100.00;76172.69;5073136;28;19972;-69
2022/08/25 04:57:38;;;;;;;;;;;;;;;-142.75;100.00;76168.75;5072807;28;19991;-69
2022/08/25 05:00:04;;;;;;;;;;;;;;;-142.75;100.00;76170.72;5071740;28;19989;-69
2022/08/25 05:02:29;;;;;;;;;;;;;;;-142.75;100.00;76182.53;5071672;28;19913;-69
2022/08/25 05:04:55;;;;;;;;;;;;;;;-142.75;100.00;76182.53;5072836;28;19920;-69
2022/08/25 05:07:20;;;;;;;;;;;;;;;-142.75;100.00;76180.56;5072632;28;20347;-69
2022/08/25 05:09:45;;;;;;;;;;;;;;;-142.75;100.00;76178.59;5072488;28;20361;-69
2022/08/25 05:12:10;;;;;;;;;;;;;;;-142.75;100.00;76174.66;5072868;28;19913;-68
2022/08/25 05:14:35;;;;;;;;;;;;;;;-142.75;100.00;76188.44;5072736;28;19920;-69
2022/08/25 05:17:01;;;;;;;;;;;;;;;-142.75;100.00;76190.41;5072440;28;19936;-69
2022/08/25 05:19:26;;;;;;;;;;;;;;;-142.75;100.00;76188.44;5072768;28;19955;-70
2022/08/25 05:21:52;;;;;;;;;;;;;;;-142.75;100.00;76200.25;5072687;28;20390;-68
2022/08/25 05:24:17;;;;;;;;;;;;;;;-142.75;100.00;76196.31;5072560;28;19924;-69
2022/08/25 05:26:43;;;;;;;;;;;;;;;-142.75;100.00;76178.59;5072319;28;19916;-70
2022/08/25 05:29:09;;;;;;;;;;;;;;;-142.75;100.00;76164.81;5072622;28;20428;-69
2022/08/25 05:31:35;;;;;;;;;;;;;;;-142.75;100.00;76164.81;5072519;28;20390;-69
2022/08/25 05:34:04;;;;;;;;;;;;;;;-142.75;100.00;76153.00;5072419;28;19967;-69
2022/08/25 05:36:29;;;;;;;;;;;;;;;-142.75;100.00;76153.00;5072308;28;19952;-70
2022/08/25 05:38:54;;;;;;;;;;;;;;;-142.75;100.00;76147.09;5072234;28;19963;-69
2022/08/25 05:41:23;;;;;;;;;;;;;;;-142.75;100.00;76147.09;5072413;28;19912;-68
2022/08/25 05:43:49;;;;;;;;;;;;;;;-142.75;100.00;76135.28;5072202;28;19912;-69
2022/08/25 05:46:16;;;;;;;;;;;;;;;-142.75;100.00;76129.38;5072367;28;19966;-69
2022/08/25 05:48:41;;;;;;;;;;;;;;;-142.75;100.00;76123.47;5070798;28;20377;-69
2022/08/25 05:51:08;;;;;;;;;;;;;;;-142.75;100.00;76117.56;5072314;28;19939;-70
2022/08/25 05:53:34;;;;;;;;;;;;;;;-142.75;100.00;76097.88;5072240;28;19913;-70
2022/08/25 05:56:00;;;;;;;;;;;;;;;-142.75;100.00;76090.00;5072249;28;20271;-68
2022/08/25 05:58:29;;;;;;;;;;;;;;;-142.75;100.00;76097.88;5071824;28;19912;-69
2022/08/25 06:00:55;;;;;;;;;;;;;;;-142.75;100.00;76097.88;5070929;28;19924;-69
2022/08/25 06:03:20;;;;;;;;;;;;;;;-142.75;100.00;76099.84;5070687;28;19916;-69
2022/08/25 06:05:46;;;;;;;;;;;;;;;-142.75;100.00;76105.75;5072031;28;19950;-70
2022/08/25 06:08:11;;;;;;;;;;;;;;;-142.75;100.00;76105.75;5070519;28;19923;-69
2022/08/25 06:10:36;;;;;;;;;;;;;;;-142.75;100.00;76105.75;5072169;28;19956;-70
2022/08/25 06:13:02;;;;;;;;;;;;;;;-142.75;100.00;76109.69;5071978;28;19938;-68
2022/08/25 06:15:27;;;;;;;;;;;;;;;-142.75;100.00;76105.75;5072106;28;19912;-69
2022/08/25 06:17:55;;;;;;;;;;;;;;;-142.75;100.00;76105.75;5071735;28;19919;-69
2022/08/25 06:20:22;;;;;;;;;;;;;;;-142.75;100.00;76097.88;5072046;28;19913;-70
2022/08/25 06:22:48;;;;;;;;;;;;;;;-142.75;100.00;76086.06;5073905;28;19912;-69
2022/08/25 06:25:14;;;;;;;;;;;;;;;-142.75;100.00;76074.25;5073387;28;20019;-69
2022/08/25 06:27:40;;;;;;;;;;;;;;;-142.75;100.00;76074.25;5055559;28;20382;-69
2022/08/25 06:30:06;;;;;;;;;;;;;;;-142.75;100.00;76074.25;5055912;28;19919;-70
2022/08/25 06:32:32;;;;;;;;;;;;;;;-142.75;100.00;76070.34;5055975;28;20055;-69
2022/08/25 06:34:58;;;;;;;;;;;;;;;-142.75;100.00;76066.41;5037908;28;19912;-70
2022/08/25 06:37:23;;;;;;;;;;;;;;;-142.75;100.00;76048.69;5055487;28;19919;-70
2022/08/25 06:39:48;;;;;;;;;;;;;;;-142.75;100.00;76029.00;5055774;28;19913;-69
2022/08/25 06:42:13;;;;;;;;;;;;;;;-142.75;100.00;76013.25;5055646;28;19912;-69
2022/08/25 06:44:39;;;;;;;;;;;;;;;-142.75;100.00;76003.41;5055509;28;19920;-69
2022/08/25 06:47:05;;;;;;;;;;;;;;;-142.75;100.00;75989.63;5037365;28;19940;-69
2022/08/25 06:49:30;;;;;;;;;;;;;;;-142.75;100.00;75966.00;5055528;28;19917;-70
2022/08/25 06:51:55;;;;;;;;;;;;;;;-142.75;100.00;75956.19;5055496;28;20403;-70
2022/08/25 06:54:21;;;;;;;;;;;;;;;-142.75;100.00;75948.31;5055395;28;19924;-70
2022/08/25 06:56:46;;;;;;;;;;;;;;;-142.75;100.00;75942.41;5055000;28;19913;-69
2022/08/25 06:59:11;;;;;;;;;;;;;;;-142.75;100.00;75932.56;5055295;28;19917;-70
2022/08/25 07:01:37;;;;;;;;;;;;;;;-142.75;100.00;75920.75;5055315;28;20003;-69
2022/08/25 07:04:03;;;;;;;;;;;;;;;-142.75;100.00;75908.94;5086346;22;19947;-68
2022/08/25 07:06:34;;;;;;;;;;;;;;;-142.75;100.00;75875.47;5074751;28;20364;-68
2022/08/25 07:09:00;;;;;;;;;;;;;;;-142.75;100.00;75845.97;5076027;28;19916;-68
2022/08/25 07:11:25;;;;;;;;;;;;;;;-142.75;100.00;75824.31;5078142;28;20040;-68
2022/08/25 07:13:50;;;;;;;;;;;;;;;-142.75;100.00;75792.81;5077820;28;19912;-68
2022/08/25 07:16:16;;;;;;;;;;;;;;;-142.75;100.00;75779.03;5077662;28;19912;-68
2022/08/25 07:18:42;;;;;;;;;;;;;;;-142.75;100.00;75757.41;5077531;28;19916;-68
2022/08/25 07:21:08;;;;;;;;;;;;;;;-142.75;100.00;75739.69;5076847;28;19966;-68
2022/08/25 07:23:33;;;;;;;;;;;;;;;-142.75;100.00;75725.91;5077837;28;19916;-68
2022/08/25 07:26:07;;;;;;;;;;;;;;;-142.75;100.00;75708.19;5077567;28;19927;-68
2022/08/25 07:28:32;;;;;;;;;;;;;;;-142.75;100.00;75678.66;5077640;28;19916;-68
2022/08/25 07:30:59;;;;;;;;;;;;;;;-142.75;100.00;75657.03;5077715;28;19916;-68
2022/08/25 07:33:24;;;;;;;;;;;;;;;-142.75;100.00;75635.38;5077303;28;19952;-68
2022/08/25 07:35:50;;;;;;;;;;;;;;;-142.75;100.00;75611.75;5081751;28;20396;-68
2022/08/25 07:38:16;;;;;;;;;;;;;;;-142.75;100.00;75607.81;5081656;28;20278;-65
2022/08/25 07:40:41;;;;;;;;;;;;;;;-142.75;100.00;75594.06;5077174;28;20374;-65
2022/08/25 07:43:09;;;;;;;;;;;;;;;-142.75;100.00;75566.50;5078073;28;19912;-65
2022/08/25 07:45:35;;;;;;;;;;;;;;;-142.75;100.00;75548.78;5078354;28;19917;-65
2022/08/25 07:48:06;;;;;;;;;;;;;;;-142.75;100.00;75540.91;5077030;28;19968;-65
2022/08/25 07:50:32;;;;;;;;;;;;;;;-142.75;100.00;75523.19;5077488;28;19935;-65
2022/08/25 07:52:57;;;;;;;;;;;;;;;-142.75;100.00;75493.69;5076209;28;20286;-65
2022/08/25 07:55:23;;;;;;;;;;;;;;;-142.75;100.00;75481.88;5077005;28;19958;-65
2022/08/25 07:57:49;;;;;;;;;;;;;;;-142.75;100.00;75464.16;5078037;28;19913;-65
2022/08/25 08:00:15;;;;;;;;;;;;;;;-142.75;100.00;75444.47;5076421;28;19919;-65
2022/08/25 08:02:41;;;;;;;;;;;;;;;-142.75;100.00;75424.81;5077391;28;19912;-65
2022/08/25 08:05:07;;;;;;;;;;;;;;;-142.75;100.00;75409.06;5076654;28;20354;-65
2022/08/25 08:07:32;;;;;;;;;;;;;;;-142.75;100.00;75413.00;5077015;28;20320;-66
2022/08/25 08:09:57;;;;;;;;;;;;;;;-142.75;100.00;75407.09;5076853;28;20011;-65
2022/08/25 08:12:23;;;;;;;;;;;;;;;-142.75;100.00;75403.16;5077035;28;19934;-66
2022/08/25 08:14:49;;;;;;;;;;;;;;;-142.75;100.00;75377.56;5081653;28;19923;-65
2022/08/25 08:17:15;;;;;;;;;;;;;;;-142.75;100.00;75357.91;5081789;28;19924;-65
2022/08/25 08:19:40;;;;;;;;;;;;;;;-142.75;100.00;75352.00;5076744;28;19919;-65
2022/08/25 08:22:05;;;;;;;;;;;;;;;-142.75;100.00;75361.84;5078448;28;20377;-64
2022/08/25 08:24:33;;;;;;;;;;;;;;;-142.75;100.00;75346.09;5088608;28;19959;-65
2022/08/25 08:26:58;;;;;;;;;;;;;;;-142.75;100.00;75334.28;5091078;28;19916;-64
2022/08/25 08:29:23;;;;;;;;;;;;;;;-142.75;100.00;75314.59;5096679;28;19996;-64
2022/08/25 08:31:49;;;;;;;;;;;;;;;-142.75;98.78;75308.69;5097525;28;19912;-66
2022/08/25 08:34:14;;;;;;;;;;;;;;;-142.75;95.86;75285.09;5096191;28;19912;-65
2022/08/25 08:36:39;;;;;;;;;;;;;;;-142.75;95.89;75253.59;5080215;28;20011;-65
2022/08/25 08:39:05;;;;;;;;;;;;;;;-142.75;94.71;75220.16;5083642;28;19923;-65
2022/08/25 08:44:45;;;;;;;;;;;;;;;-142.75;92.06;75172.91;5081203;28;19923;-66
2022/08/25 08:47:29;;;;;;;;;;;;;;;-142.75;94.48;75113.88;5076579;28;20320;-66
2022/08/25 08:50:13;;;;;;;;;;;;;;;-142.75;87.49;75117.81;5086823;28;20015;-65
2022/08/25 08:52:51;;;;;;;;;;;;;;;-142.75;86.71;75104.03;5078473;28;20389;-65
2022/08/25 08:55:26;;;;;;;;;;;;;;;-142.75;83.78;75125.69;5077069;28;19913;-65
2022/08/25 08:57:55;;;;;;;;;;;;;;;-142.75;83.69;75149.31;5081461;28;19917;-66
2022/08/25 09:00:21;;;;;;;;;;;;;;;-142.75;85.41;75113.88;5078941;28;19916;-66
2022/08/25 09:02:56;;;;;;;;;;;;;;;-142.75;79.37;75072.56;5086874;28;19993;-66
2022/08/25 09:05:25;;;;;;;;;;;;;;;-142.75;76.76;75066.66;5091886;28;20521;-66
2022/08/25 09:08:02;;;;;;;;;;;;;;;-142.75;74.33;75043.03;5093901;28;19955;-66
2022/08/25 09:10:32;;;;;;;;;;;;;;;-142.75;74.44;75009.59;5093646;28;19912;-66
2022/08/25 09:13:29;;;;;;;;;;;;;;;-142.75;74.45;74968.28;5094766;28;19966;-66
2022/08/25 09:18:50;;;;;;;;;;;;;;;-142.75;69.66;74864.00;5093939;28;19922;-66
2022/08/25 09:21:32;;;;;;;;;;;;;;;-142.75;67.88;74840.38;5092827;28;20006;-66
2022/08/25 09:24:18;;;;;;;;;;;;;;;-142.75;66.67;74810.88;5094296;28;19963;-66
2022/08/25 09:26:53;;;;;;;;;;;;;;;-142.75;68.17;74799.06;5089480;28;19920;-66
2022/08/25 09:29:20;;;;;;;;;;;;;;;-142.75;68.13;74826.59;5082729;28;19920;-66
2022/08/25 09:31:47;;;;;;;;;;;;;;;-142.75;64.44;74877.75;5080973;28;19913;-66
2022/08/25 09:34:17;;;;;;;;;;;;;;;-142.75;64.81;74893.50;5082937;28;19923;-66
2022/08/25 09:36:44;;;;;;;;;;;;;;;-142.75;64.14;74875.78;5080844;28;20390;-66
2022/08/25 09:39:09;;;;;;;;;;;;;;;-142.75;64.56;74881.69;5073769;28;19952;-66
2022/08/25 09:41:51;;;;;;;;;;;;;;;-142.75;64.51;74891.53;5073444;28;19955;-66
2022/08/25 09:44:27;;;;;;;;;;;;;;;-142.75;65.42;74932.84;5080975;28;20384;-66
2022/08/25 09:47:13;;;;;;;;;;;;;;;-142.75;66.45;74954.50;5084143;28;19978;-66
2022/08/25 09:50:01;;;;;;;;;;;;;;;-142.75;67.25;74948.59;5083828;28;19965;-66
2022/08/25 09:52:26;;;;;;;;;;;;;;;-142.75;67.67;74958.44;5084040;28;19966;-66
2022/08/25 09:54:53;;;;;;;;;;;;;;;-142.75;67.44;74956.47;5082419;28;19917;-66
2022/08/25 09:57:27;;;;;;;;;;;;;;;-142.75;68.62;74960.41;5082078;28;19919;-66
2022/08/25 09:59:56;;;;;;;;;;;;;;;-142.75;67.20;74954.50;5080007;28;19977;-66
2022/08/25 10:02:28;;;;;;;;;;;;;;;-142.75;66.44;74960.41;5081544;28;19924;-66
2022/08/25 10:04:54;;;;;;;;;;;;;;;-142.75;68.17;74984.00;5084779;28;20346;-65
2022/08/25 10:07:26;;;;;;;;;;;;;;;-142.75;69.44;74982.03;5091055;28;19912;-66
2022/08/25 10:09:53;;;;;;;;;;;;;;;-142.75;71.17;74968.28;5093200;28;19922;-66
2022/08/25 10:12:23;;;;;;;;;;;;;;;-142.75;70.12;74978.13;5087690;28;19925;-66
2022/08/25 10:14:49;;;;;;;;;;;;;;;-142.75;70.64;74960.41;5087240;28;20306;-66
2022/08/25 10:17:14;;;;;;;;;;;;;;;-142.75;70.36;74928.91;5089401;28;19927;-66
2022/08/25 10:19:40;;;;;;;;;;;;;;;-142.75;70.98;74901.38;5091336;28;20474;-66
2022/08/25 10:22:08;;;;;;;;;;;;;;;-142.75;70.25;74909.25;5092997;28;19919;-66
2022/08/25 10:24:34;;;;;;;;;;;;;;;-142.75;71.33;74942.69;5090958;28;20289;-66
2022/08/25 10:27:08;;;;;;;;;;;;;;;-142.75;72.72;74932.84;5091840;28;20331;-66
2022/08/25 10:29:51;;;;;;;;;;;;;;;-142.75;73.35;74885.63;5091686;28;19998;-66
2022/08/25 10:32:19;;;;;;;;;;;;;;;-142.75;67.93;74810.88;5092074;28;20366;-66
2022/08/25 10:34:47;;;;;;;;;;;;;;;-142.75;69.38;74742.00;5092729;28;19918;-66
2022/08/25 10:37:13;;;;;;;;;;;;;;;-142.75;63.35;74692.81;5092399;28;19912;-66
2022/08/25 10:39:51;;;;;;;;;;;;;;;-142.75;59.85;74620.00;5092652;28;20270;-66
2022/08/25 10:42:23;;;;;;;;;;;;;;;-142.75;59.72;74562.94;5091590;28;20385;-66
2022/08/25 10:47:53;;;;;;;;;;;;;;;-142.75;56.76;74464.56;5092418;28;19920;-66
2022/08/25 10:50:33;;;;;;;;;;;;;;;-142.75;56.73;74423.25;5092405;28;19912;-66
2022/08/25 10:53:08;;;;;;;;;;;;;;;-142.75;55.63;74393.75;5092319;28;20535;-67
2022/08/25 10:55:38;;;;;;;;;;;;;;;-142.75;53.49;74372.09;5092150;28;19912;-67
2022/08/25 10:58:07;;;;;;;;;;;;;;;-142.75;52.65;74338.66;5090527;28;19912;-67
2022/08/25 11:00:42;;;;;;;;;;;;;;;-142.75;53.50;74328.81;5091797;28;19916;-67
2022/08/25 11:03:17;;;;;;;;;;;;;;;-142.75;46.12;74307.19;5071003;28;20389;-66
2022/08/25 11:05:46;;;;;;;;;;;;;;;-142.75;47.93;74289.47;5070617;28;20301;-67
2022/08/25 11:08:15;;;;;;;;;;;;;;;-142.75;47.96;74275.72;5072776;28;19916;-66
2022/08/25 11:10:40;;;;;;;;;;;;;;;-142.75;44.55;74228.50;5074356;28;19916;-67
2022/08/25 11:13:08;;;;;;;;;;;;;;;-142.75;43.65;74224.56;5075562;28;19920;-66
2022/08/25 11:15:34;;;;;;;;;;;;;;;-142.75;45.99;74246.19;5074127;28;19912;-67
2022/08/25 11:18:06;;;;;;;;;;;;;;;-142.75;44.95;74198.97;5075462;28;20285;-67
2022/08/25 11:20:37;;;;;;;;;;;;;;;-142.75;47.55;74246.19;5074383;28;19935;-66
2022/08/25 11:23:08;;;;;;;;;;;;;;;-142.75;45.88;74173.41;5075640;28;19939;-67
2022/08/25 11:25:37;;;;;;;;;;;;;;;-142.75;47.80;74193.09;5074145;28;20011;-67
2022/08/25 11:28:02;;;;;;;;;;;;;;;-142.75;41.78;74147.84;5073867;28;19970;-67
2022/08/25 11:30:27;;;;;;;;;;;;;;;-142.75;42.34;74110.44;5074176;28;20333;-67
2022/08/25 11:32:54;;;;;;;;;;;;;;;-142.75;45.12;74075.03;5075511;28;20008;-67
2022/08/25 11:35:26;;;;;;;;;;;;;;;-142.75;39.33;74092.75;5075453;28;19916;-67
2022/08/25 11:38:00;;;;;;;;;;;;;;;-142.75;37.98;74114.38;5075117;28;20026;-67
2022/08/25 11:40:48;;;;;;;;;;;;;;;-142.75;36.96;74102.59;5073819;28;19923;-68
2022/08/25 11:43:25;;;;;;;;;;;;;;;-142.75;39.06;74098.66;5075128;28;19913;-67
2022/08/25 11:46:00;;;;;;;;;;;;;;;-142.75;37.10;74084.88;5073478;28;20023;-67
2022/08/25 11:48:45;;;;;;;;;;;;;;;-142.75;39.55;74080.94;5074698;28;20007;-67
2022/08/25 11:51:25;;;;;;;;;;;;;;;-142.75;39.70;74102.59;5075252;28;20022;-67
2022/08/25 11:54:05;;;;;;;;;;;;;;;-142.75;37.57;74078.97;5074797;28;19922;-67
2022/08/25 11:56:36;;;;;;;;;;;;;;;-142.75;34.07;74063.25;5075145;28;20015;-67
2022/08/25 11:59:03;;;;;;;;;;;;;;;-142.75;33.30;74077.00;5074876;28;20277;-67
2022/08/25 12:01:44;;;;;;;;;;;;;;;-142.75;33.45;74108.47;5074969;28;19966;-67
2022/08/25 12:04:13;;;;;;;;;;;;;;;-142.75;34.39;74122.25;5073485;28;19924;-67
2022/08/25 12:06:58;;;;;;;;;;;;;;;-142.75;36.37;74090.78;5074747;28;20456;-67
2022/08/25 12:09:23;;;;;;;;;;;;;;;-142.75;38.69;74086.84;5074382;28;19962;-67
2022/08/25 12:11:51;;;;;;;;;;;;;;;-142.75;32.38;74110.44;5074646;28;19912;-67
2022/08/25 12:14:25;;;;;;;;;;;;;;;-142.75;33.90;74053.41;5074438;28;19919;-67
2022/08/25 12:16:50;;;;;;;;;;;;;;;-142.75;34.28;74025.88;5074617;28;19916;-66
2022/08/25 12:19:24;;;;;;;;;;;;;;;-142.75;30.87;74012.09;5074873;28;20011;-66
2022/08/25 12:21:50;;;;;;;;;;;;;;;-142.75;31.11;74055.38;5074077;28;19916;-67
2022/08/25 12:24:19;;;;;;;;;;;;;;;-142.75;33.14;74012.09;5074763;28;20271;-67
2022/08/25 12:26:51;;;;;;;;;;;;;;;-142.75;32.07;74045.53;5074250;28;19919;-67
2022/08/25 12:29:19;;;;;;;;;;;;;;;-142.75;34.28;74019.97;5074170;28;19919;-66
2022/08/25 12:32:05;;;;;;;;;;;;;;;-142.75;32.48;73960.94;5074580;28;19919;-67
2022/08/25 12:34:34;;;;;;;;;;;;;;;-142.75;32.63;73972.75;5074300;28;19919;-67
2022/08/25 12:37:16;;;;;;;;;;;;;;;-142.75;32.74;74039.63;5082656;28;19951;-65